Time;durP1;ratioP1;P1;durP2;ratioP2;P2;SDS_P1;SDS_P2;PMS_P1;PMS_P2;Temp;Humidity;BMP_temperature;BMP_pressure;BME280_temperature;BME280_humidity;BME280_pressure;Samples;Min_cycle;Max_cycle;Signal;HPM_P1;HPM_P2
2021/09/01 00:02:08;;;;;;;6.80;6.03;;;14.30;1.00;;;;;;5050109;28;20642;-59
2021/09/01 00:04:34;;;;;;;6.73;6.03;;;14.30;1.00;;;;;;5051321;28;20567;-60
2021/09/01 00:06:59;;;;;;;8.90;6.00;;;14.30;1.00;;;;;;5051264;28;20181;-59
2021/09/01 00:09:25;;;;;;;6.13;5.53;;;14.30;1.00;;;;;;5044897;28;20612;-58
2021/09/01 00:11:51;;;;;;;7.67;6.10;;;14.20;1.00;;;;;;5047372;28;20267;-59
2021/09/01 00:14:17;;;;;;;6.80;5.73;;;14.20;1.00;;;;;;5059555;28;20177;-57
2021/09/01 00:16:44;;;;;;;9.80;5.97;;;14.20;1.00;;;;;;5058223;28;20455;-60
2021/09/01 00:19:10;;;;;;;7.80;6.47;;;14.10;1.00;;;;;;5052999;28;20454;-59
2021/09/01 00:21:37;;;;;;;7.13;6.07;;;14.00;1.00;;;;;;5053173;28;20435;-58
2021/09/01 00:24:03;;;;;;;6.80;6.10;;;14.00;1.00;;;;;;5050762;28;20535;-59
2021/09/01 00:26:29;;;;;;;8.43;6.53;;;14.00;1.00;;;;;;5050091;28;20459;-58
2021/09/01 00:28:56;;;;;;;7.13;6.30;;;14.00;1.00;;;;;;5069642;28;20453;-58
2021/09/01 00:31:22;;;;;;;8.10;7.27;;;14.00;1.00;;;;;;5050811;28;20474;-58
2021/09/01 00:33:48;;;;;;;8.40;6.37;;;13.90;1.00;;;;;;5050344;28;20541;-59
2021/09/01 00:36:14;;;;;;;7.20;6.43;;;13.90;1.00;;;;;;5050263;28;20519;-59
2021/09/01 00:38:40;;;;;;;8.30;7.00;;;13.90;1.00;;;;;;5053559;28;20444;-59
2021/09/01 00:41:06;;;;;;;9.00;7.23;;;13.90;1.00;;;;;;5050995;28;20449;-58
2021/09/01 00:43:32;;;;;;;8.40;7.10;;;13.90;1.00;;;;;;5054725;28;20450;-58
2021/09/01 00:45:58;;;;;;;7.23;6.53;;;13.90;1.00;;;;;;5054657;28;20475;-57
2021/09/01 00:48:24;;;;;;;9.37;7.10;;;13.90;1.00;;;;;;5058021;28;20243;-58
2021/09/01 00:50:52;;;;;;;7.57;6.20;;;13.90;1.00;;;;;;5051005;28;20530;-57
2021/09/01 00:53:19;;;;;;;9.83;6.47;;;14.40;1.00;;;;;;5050809;28;20435;-59
2021/09/01 00:55:49;;;;;;;9.00;6.53;;;14.00;1.00;;;;;;5049924;28;20501;-57
2021/09/01 00:58:18;;;;;;;9.23;7.10;;;13.90;1.00;;;;;;5055862;28;20959;-57
2021/09/01 01:01:05;;;;;;;9.53;7.63;;;13.90;1.00;;;;;;5052403;28;20438;-60
2021/09/01 01:03:31;;;;;;;8.17;6.30;;;13.90;1.00;;;;;;5061724;28;20461;-58
2021/09/01 01:05:57;;;;;;;8.77;7.87;;;13.90;1.00;;;;;;5060511;28;20470;-59
2021/09/01 01:08:27;;;;;;;8.10;6.80;;;14.00;1.00;;;;;;5054409;28;20695;-58
2021/09/01 01:10:52;;;;;;;9.07;7.73;;;13.70;1.00;;;;;;5044889;28;20450;-58
2021/09/01 01:13:18;;;;;;;8.90;7.10;;;13.90;1.00;;;;;;5050469;28;20447;-57
2021/09/01 01:15:43;;;;;;;6.93;5.80;;;13.80;1.00;;;;;;5049208;28;20185;-57
2021/09/01 01:18:10;;;;;;;9.07;6.10;;;13.80;1.00;;;;;;5050495;28;20181;-58
2021/09/01 01:20:37;;;;;;;6.40;5.80;;;13.70;1.00;;;;;;5058250;28;20861;-60
2021/09/01 01:23:03;;;;;;;9.30;6.33;;;13.80;1.00;;;;;;5046521;28;20525;-58
2021/09/01 01:25:42;;;;;;;9.57;7.20;;;13.70;1.00;;;;;;5050326;28;20471;-60
2021/09/01 01:28:08;;;;;;;8.00;6.30;;;13.60;1.00;;;;;;5049995;28;20481;-59
2021/09/01 01:30:35;;;;;;;8.57;6.13;;;13.60;1.00;;;;;;5048479;28;20905;-59
2021/09/01 01:33:01;;;;;;;7.70;6.70;;;13.50;1.00;;;;;;5047962;28;20796;-59
2021/09/01 01:35:29;;;;;;;9.80;7.03;;;13.50;1.00;;;;;;5049790;28;20462;-59
2021/09/01 01:37:56;;;;;;;7.80;6.23;;;13.40;1.00;;;;;;5049795;28;20181;-58
2021/09/01 01:40:22;;;;;;;8.23;6.53;;;13.40;1.00;;;;;;5050323;28;20430;-57
2021/09/01 01:42:53;;;;;;;8.20;7.00;;;13.40;1.00;;;;;;5049686;28;20490;-59
2021/09/01 01:45:20;;;;;;;6.97;6.10;;;13.40;1.00;;;;;;5060563;28;20521;-57
2021/09/01 01:47:46;;;;;;;9.30;7.33;;;13.40;1.00;;;;;;5058614;28;21072;-57
2021/09/01 01:50:12;;;;;;;9.50;7.83;;;13.30;1.00;;;;;;5053885;28;20439;-58
2021/09/01 01:52:38;;;;;;;7.80;6.50;;;13.30;1.00;;;;;;5050106;28;20193;-58
2021/09/01 01:55:05;;;;;;;7.20;6.47;;;13.30;1.00;;;;;;5050695;28;20181;-58
2021/09/01 01:57:31;;;;;;;8.37;6.70;;;13.20;1.00;;;;;;5050298;28;20443;-58
2021/09/01 01:59:56;;;;;;;7.33;6.57;;;13.20;2.10;;;;;;5049779;28;20446;-58
2021/09/01 02:02:22;;;;;;;7.53;5.83;;;13.20;4.10;;;;;;5047574;28;20238;-59
2021/09/01 02:04:47;;;;;;;7.23;6.37;;;13.20;9.00;;;;;;5049266;28;20679;-58
2021/09/01 02:07:14;;;;;;;7.33;6.60;;;13.30;11.00;;;;;;5048644;28;20637;-57
2021/09/01 02:09:39;;;;;;;7.33;6.30;;;13.20;10.60;;;;;;5051254;28;20176;-58
2021/09/01 02:12:05;;;;;;;8.80;7.00;;;13.20;9.70;;;;;;5067984;28;20793;-59
2021/09/01 02:14:31;;;;;;;8.10;6.60;;;13.30;7.40;;;;;;5065577;28;20185;-59
2021/09/01 02:16:56;;;;;;;9.67;6.63;;;13.30;4.10;;;;;;5049963;28;20431;-58
2021/09/01 02:19:22;;;;;;;9.00;7.03;;;13.20;4.40;;;;;;5048487;28;20192;-59
2021/09/01 02:21:47;;;;;;;7.10;6.40;;;13.10;6.10;;;;;;5047989;28;20177;-58
2021/09/01 02:24:13;;;;;;;7.83;6.17;;;13.10;9.20;;;;;;5049353;28;20250;-60
2021/09/01 02:26:38;;;;;;;7.20;6.50;;;13.10;10.40;;;;;;5048440;28;20263;-58
2021/09/01 02:29:04;;;;;;;7.17;6.47;;;13.10;13.20;;;;;;5050062;28;20181;-57
2021/09/01 02:31:29;;;;;;;7.47;6.40;;;12.90;14.50;;;;;;5049582;28;20181;-57
2021/09/01 02:33:55;;;;;;;9.80;6.90;;;13.00;17.20;;;;;;5045714;28;20204;-57
2021/09/01 02:36:20;;;;;;;8.53;6.47;;;12.90;19.40;;;;;;5048435;28;20188;-58
2021/09/01 02:38:46;;;;;;;8.57;6.93;;;12.90;28.50;;;;;;5047676;28;20270;-58
2021/09/01 02:41:12;;;;;;;7.40;6.70;;;12.90;31.80;;;;;;5052131;28;20520;-58
2021/09/01 02:43:39;;;;;;;10.10;7.17;;;12.90;33.90;;;;;;5053043;28;20188;-59
2021/09/01 02:46:05;;;;;;;9.03;7.20;;;12.90;33.00;;;;;;5052992;28;20509;-58
2021/09/01 02:48:31;;;;;;;9.07;7.80;;;12.90;34.00;;;;;;5057929;28;20513;-58
2021/09/01 02:50:57;;;;;;;8.00;7.17;;;13.00;33.00;;;;;;5051269;28;20555;-58
2021/09/01 02:53:22;;;;;;;10.93;7.07;;;13.00;30.00;;;;;;5051364;28;20443;-58
2021/09/01 02:55:49;;;;;;;9.10;7.50;;;13.00;31.10;;;;;;5052604;28;20774;-58
2021/09/01 02:58:15;;;;;;;8.03;7.10;;;12.90;31.20;;;;;;5052783;28;20192;-58
2021/09/01 03:00:41;;;;;;;10.27;6.67;;;12.90;33.90;;;;;;5052613;28;20435;-58
2021/09/01 03:03:07;;;;;;;8.30;7.23;;;12.90;35.10;;;;;;5051413;28;20464;-57
2021/09/01 03:05:32;;;;;;;8.10;7.30;;;12.90;31.20;;;;;;5052983;28;20199;-59
2021/09/01 03:07:58;;;;;;;9.37;6.93;;;12.90;31.20;;;;;;5050027;28;20658;-59
2021/09/01 03:10:23;;;;;;;9.57;7.37;;;12.90;28.20;;;;;;5042152;28;20184;-59
2021/09/01 03:12:49;;;;;;;7.10;6.30;;;12.90;25.60;;;;;;5052408;28;20183;-58
2021/09/01 03:15:15;;;;;;;9.03;7.40;;;12.90;21.90;;;;;;5052594;28;20231;-58
2021/09/01 03:17:40;;;;;;;7.40;6.70;;;12.80;22.30;;;;;;5053775;28;20197;-58
2021/09/01 03:20:07;;;;;;;10.40;7.13;;;12.90;21.10;;;;;;5049183;28;20200;-59
2021/09/01 03:22:32;;;;;;;7.50;6.13;;;12.90;19.10;;;;;;5052846;28;20242;-59
2021/09/01 03:24:58;;;;;;;11.47;6.67;;;12.80;16.80;;;;;;5052264;28;20462;-60
2021/09/01 03:27:23;;;;;;;7.87;6.47;;;12.80;18.90;;;;;;5058921;28;20191;-59
2021/09/01 03:29:49;;;;;;;8.03;6.60;;;12.80;19.10;;;;;;5052641;28;20196;-58
2021/09/01 03:32:15;;;;;;;9.00;7.40;;;12.70;22.90;;;;;;5048883;28;20270;-57
2021/09/01 03:34:40;;;;;;;9.27;6.93;;;12.70;20.90;;;;;;5050615;28;20323;-59
2021/09/01 03:37:06;;;;;;;7.53;6.23;;;12.70;23.70;;;;;;5051674;28;20486;-59
2021/09/01 03:39:32;;;;;;;6.70;6.00;;;12.60;28.40;;;;;;5052790;28;20185;-57
2021/09/01 03:41:57;;;;;;;9.63;7.67;;;12.60;26.50;;;;;;5050942;28;20283;-58
2021/09/01 03:44:23;;;;;;;12.70;7.10;;;12.60;26.10;;;;;;5053856;28;20681;-57
2021/09/01 03:46:48;;;;;;;7.87;6.83;;;12.70;26.60;;;;;;5050820;28;20176;-58
2021/09/01 03:49:17;;;;;;;7.93;6.93;;;12.70;25.70;;;;;;5052402;28;20248;-58
2021/09/01 03:51:46;;;;;;;11.93;7.00;;;12.70;25.40;;;;;;5052010;28;20191;-58
2021/09/01 03:54:12;;;;;;;8.90;6.87;;;12.70;25.40;;;;;;5047997;28;20649;-60
2021/09/01 03:56:38;;;;;;;8.33;6.50;;;12.70;23.80;;;;;;5050769;28;20477;-59
2021/09/01 03:59:04;;;;;;;8.00;7.17;;;12.60;24.40;;;;;;5053754;28;20189;-58
2021/09/01 04:01:34;;;;;;;8.33;7.43;;;12.60;26.60;;;;;;5052157;28;20188;-57
2021/09/01 04:04:01;;;;;;;8.83;7.40;;;12.60;29.80;;;;;;5051296;28;20446;-59
2021/09/01 04:06:27;;;;;;;9.40;7.57;;;12.70;32.10;;;;;;5051723;28;20469;-56
2021/09/01 04:08:53;;;;;;;8.70;6.83;;;12.70;30.00;;;;;;5056777;28;20405;-58
2021/09/01 04:11:18;;;;;;;11.13;7.30;;;12.60;33.10;;;;;;5057266;28;20276;-58
2021/09/01 04:13:44;;;;;;;8.90;6.87;;;12.70;31.30;;;;;;5061489;28;20268;-59
2021/09/01 04:16:09;;;;;;;7.60;6.73;;;12.50;30.00;;;;;;5061529;28;20189;-59
2021/09/01 04:18:35;;;;;;;8.90;7.93;;;12.50;33.70;;;;;;5058557;28;20538;-58
2021/09/01 04:21:01;;;;;;;9.97;6.53;;;12.60;32.70;;;;;;5064771;28;20184;-58
2021/09/01 04:23:27;;;;;;;9.73;8.73;;;12.60;34.90;;;;;;5065948;28;20191;-57
2021/09/01 04:25:52;;;;;;;8.13;6.60;;;12.60;35.00;;;;;;5062749;28;20494;-58
2021/09/01 04:28:18;;;;;;;9.60;6.77;;;12.60;36.40;;;;;;5055987;28;20184;-59
2021/09/01 04:30:43;;;;;;;8.60;5.80;;;12.70;31.00;;;;;;5058212;28;20173;-59
2021/09/01 04:33:09;;;;;;;6.80;6.10;;;12.70;26.10;;;;;;5054189;28;20213;-57
2021/09/01 04:35:35;;;;;;;8.10;6.30;;;12.70;20.70;;;;;;5056156;28;20250;-57
2021/09/01 04:38:00;;;;;;;13.10;7.50;;;12.70;18.40;;;;;;5058767;28;20198;-58
2021/09/01 04:40:26;;;;;;;8.03;6.77;;;12.60;13.30;;;;;;5067976;28;20218;-58
2021/09/01 04:42:51;;;;;;;8.17;6.27;;;12.70;10.60;;;;;;5058520;28;20188;-59
2021/09/01 04:45:17;;;;;;;8.10;6.50;;;12.70;4.70;;;;;;5061750;28;20210;-58
2021/09/01 04:47:42;;;;;;;8.30;6.97;;;12.70;7.40;;;;;;5060199;28;20189;-58
2021/09/01 04:50:08;;;;;;;7.90;6.50;;;12.70;4.40;;;;;;5063466;28;20184;-57
2021/09/01 04:52:34;;;;;;;8.23;5.87;;;12.70;6.80;;;;;;5049664;28;20626;-57
2021/09/01 04:55:00;;;;;;;7.93;6.23;;;12.80;5.60;;;;;;5056737;28;20438;-57
2021/09/01 04:57:26;;;;;;;9.17;7.60;;;12.80;4.80;;;;;;5054983;28;20203;-58
2021/09/01 04:59:51;;;;;;;13.00;7.43;;;12.90;3.80;;;;;;5051473;28;20443;-59
2021/09/01 05:02:17;;;;;;;9.47;7.97;;;12.90;2.00;;;;;;5062052;28;20184;-59
2021/09/01 05:04:42;;;;;;;12.60;7.10;;;12.90;3.80;;;;;;5061215;28;20211;-59
2021/09/01 05:07:08;;;;;;;9.90;7.90;;;12.90;3.80;;;;;;5064698;28;20185;-57
2021/09/01 05:09:33;;;;;;;9.27;8.27;;;12.90;3.80;;;;;;5051235;28;20650;-56
2021/09/01 05:11:59;;;;;;;9.53;8.00;;;13.00;3.80;;;;;;5053101;28;20181;-58
2021/09/01 05:14:25;;;;;;;12.57;8.63;;;13.10;2.90;;;;;;5059230;28;20677;-58
2021/09/01 05:16:50;;;;;;;11.10;8.70;;;13.20;1.00;;;;;;5058507;28;20708;-58
2021/09/01 05:19:16;;;;;;;12.30;7.63;;;13.30;1.00;;;;;;5050863;28;20177;-57
2021/09/01 05:21:52;;;;;;;8.00;6.73;;;13.40;1.00;;;;;;5056739;28;20176;-58
2021/09/01 05:24:52;;;;;;;12.50;7.70;;;13.50;1.00;;;;;;5051352;28;20177;-59
2021/09/01 05:27:21;;;;;;;8.93;7.70;;;13.50;1.00;;;;;;5055525;28;20481;-58
2021/09/01 05:29:48;;;;;;;9.27;7.63;;;13.60;1.00;;;;;;5060647;28;20940;-57
2021/09/01 05:32:25;;;;;;;9.00;7.80;;;13.70;1.00;;;;;;5055464;28;20431;-58
2021/09/01 05:34:54;;;;;;;8.47;6.80;;;13.80;1.00;;;;;;5053721;28;20470;-58
2021/09/01 05:37:22;;;;;;;13.27;7.80;;;13.90;1.00;;;;;;5052681;28;20440;-59
2021/09/01 05:39:50;;;;;;;14.70;7.13;;;14.00;1.00;;;;;;5061754;28;20442;-58
2021/09/01 05:42:24;;;;;;;10.80;7.60;;;14.00;1.00;;;;;;5053643;28;20964;-57
2021/09/01 05:44:50;;;;;;;8.10;7.07;;;14.10;1.00;;;;;;5053267;28;20512;-57
2021/09/01 05:47:17;;;;;;;11.93;7.60;;;14.10;1.00;;;;;;5062698;28;20436;-57
2021/09/01 05:49:44;;;;;;;8.57;7.07;;;14.20;1.00;;;;;;5055166;28;20450;-57
2021/09/01 05:52:11;;;;;;;9.17;7.30;;;14.30;1.00;;;;;;5063825;28;20498;-59
2021/09/01 05:54:41;;;;;;;11.93;8.70;;;14.40;1.00;;;;;;5057497;28;20864;-57
2021/09/01 05:57:15;;;;;;;9.67;8.13;;;14.60;1.00;;;;;;5059278;28;20441;-57
2021/09/01 05:59:54;;;;;;;11.53;7.30;;;14.70;1.00;;;;;;5061850;28;20479;-58
2021/09/01 06:02:21;;;;;;;13.87;9.13;;;14.80;1.00;;;;;;5056829;28;20479;-57
2021/09/01 06:04:48;;;;;;;12.13;9.27;;;15.10;1.00;;;;;;5062125;28;20936;-57
2021/09/01 06:07:16;;;;;;;14.27;10.67;;;15.20;1.00;;;;;;5059849;28;20925;-57
2021/09/01 06:09:43;;;;;;;12.70;11.40;;;15.50;1.00;;;;;;5056020;28;20444;-58
2021/09/01 06:12:20;;;;;;;13.70;10.23;;;15.90;1.00;;;;;;5050348;28;20520;-57
2021/09/01 06:14:46;;;;;;;14.63;10.77;;;15.90;1.00;;;;;;5047481;28;20517;-58
2021/09/01 06:17:12;;;;;;;13.93;10.53;;;16.00;1.00;;;;;;5057680;28;20430;-57
2021/09/01 06:19:39;;;;;;;14.47;11.77;;;16.10;1.00;;;;;;5053489;28;20442;-58
2021/09/01 06:22:05;;;;;;;13.07;10.47;;;16.10;1.00;;;;;;5059444;28;20259;-59
2021/09/01 06:24:34;;;;;;;14.53;11.97;;;16.10;1.00;;;;;;5067487;28;20433;-57
2021/09/01 06:27:01;;;;;;;15.60;12.40;;;16.20;1.00;;;;;;5058022;28;20562;-59
2021/09/01 06:29:27;;;;;;;13.37;10.77;;;16.30;1.00;;;;;;5058450;28;20924;-59
2021/09/01 06:31:54;;;;;;;15.90;12.10;;;16.40;1.00;;;;;;5064944;28;20446;-59
2021/09/01 06:34:19;;;;;;;16.70;10.60;;;16.40;1.00;;;;;;5068473;28;20476;-58
2021/09/01 06:36:45;;;;;;;14.43;11.53;;;16.40;1.00;;;;;;5055782;28;20948;-58
2021/09/01 06:39:11;;;;;;;16.40;11.60;;;16.30;1.00;;;;;;5065399;28;20194;-57
2021/09/01 06:41:37;;;;;;;12.97;10.47;;;16.20;1.00;;;;;;5056669;28;20279;-60
2021/09/01 06:44:03;;;;;;;12.17;10.47;;;16.30;1.00;;;;;;5053483;28;20196;-58
2021/09/01 06:46:28;;;;;;;12.20;10.70;;;16.50;1.00;;;;;;5052720;28;20970;-58
2021/09/01 06:48:54;;;;;;;14.10;11.30;;;16.80;1.00;;;;;;5052494;28;20181;-56
2021/09/01 06:51:20;;;;;;;11.07;9.87;;;17.00;1.00;;;;;;5053102;28;20189;-57
2021/09/01 06:53:45;;;;;;;10.53;9.47;;;17.20;1.00;;;;;;5052455;28;20185;-59
2021/09/01 06:56:11;;;;;;;17.80;10.20;;;17.40;1.00;;;;;;5060896;28;20244;-58
2021/09/01 06:58:36;;;;;;;13.40;11.80;;;17.50;1.00;;;;;;5056138;28;20275;-57
2021/09/01 07:01:03;;;;;;;11.77;10.43;;;17.70;1.00;;;;;;5068841;28;20192;-58
2021/09/01 07:03:28;;;;;;;15.90;14.20;;;17.80;1.00;;;;;;5058254;28;20545;-58
2021/09/01 07:05:54;;;;;;;16.00;12.07;;;18.00;1.00;;;;;;5057465;28;20473;-57
2021/09/01 07:08:22;;;;;;;13.97;11.00;;;18.10;1.00;;;;;;5053361;28;20184;-58
2021/09/01 07:10:48;;;;;;;11.20;10.10;;;18.20;1.00;;;;;;5062680;28;20617;-59
2021/09/01 07:13:14;;;;;;;13.40;9.67;;;18.30;1.00;;;;;;5070966;28;20432;-58
2021/09/01 07:15:40;;;;;;;10.73;9.07;;;18.30;1.00;;;;;;5068205;28;20717;-57
2021/09/01 07:18:06;;;;;;;10.23;9.23;;;18.50;1.00;;;;;;5061121;28;20431;-58
2021/09/01 07:20:31;;;;;;;12.80;9.57;;;18.50;1.00;;;;;;5057192;28;20432;-58
2021/09/01 07:22:57;;;;;;;12.57;10.30;;;18.50;1.00;;;;;;5069556;28;20614;-57
2021/09/01 07:25:23;;;;;;;11.70;10.30;;;18.70;1.00;;;;;;5050870;28;20219;-57
2021/09/01 07:27:48;;;;;;;13.90;10.83;;;18.50;1.00;;;;;;5057889;28;20226;-58
2021/09/01 07:30:14;;;;;;;13.30;10.43;;;18.20;1.00;;;;;;5052534;28;20245;-58
2021/09/01 07:32:39;;;;;;;11.43;10.23;;;18.30;1.00;;;;;;5052533;28;20186;-58
2021/09/01 07:35:05;;;;;;;12.70;11.03;;;18.10;1.00;;;;;;5067897;28;20238;-56
2021/09/01 07:37:31;;;;;;;15.00;11.90;;;18.10;1.00;;;;;;5072488;28;20187;-59
2021/09/01 07:39:57;;;;;;;15.50;11.47;;;18.20;1.00;;;;;;5055039;28;20225;-57
2021/09/01 07:42:22;;;;;;;13.13;11.07;;;18.30;1.00;;;;;;5064227;28;20212;-57
2021/09/01 07:44:48;;;;;;;18.07;12.47;;;18.10;1.00;;;;;;5064228;28;20202;-57
2021/09/01 07:47:13;;;;;;;14.30;12.43;;;17.70;1.00;;;;;;5068090;28;20187;-58
2021/09/01 07:49:39;;;;;;;15.13;12.70;;;17.50;1.00;;;;;;5060965;28;20560;-58
2021/09/01 07:52:04;;;;;;;13.80;12.30;;;17.30;1.00;;;;;;5056572;28;20544;-57
2021/09/01 07:54:30;;;;;;;18.20;12.47;;;17.20;1.00;;;;;;5051965;28;20648;-56
2021/09/01 07:56:56;;;;;;;17.80;13.23;;;17.40;1.00;;;;;;5056540;28;20210;-58
2021/09/01 07:59:22;;;;;;;18.17;13.20;;;17.50;1.00;;;;;;5069955;28;20786;-57
2021/09/01 08:01:47;;;;;;;15.67;12.47;;;17.50;1.00;;;;;;5058806;28;20194;-57
2021/09/01 08:04:13;;;;;;;13.50;12.03;;;17.60;1.00;;;;;;5071969;28;20608;-58
2021/09/01 08:06:38;;;;;;;13.50;11.80;;;17.70;1.00;;;;;;5064088;28;20208;-58
2021/09/01 08:09:04;;;;;;;16.77;11.77;;;17.70;1.00;;;;;;5057794;28;20183;-57
2021/09/01 08:11:31;;;;;;;16.93;12.80;;;17.70;1.00;;;;;;5069215;28;20195;-57
2021/09/01 08:13:56;;;;;;;14.53;11.43;;;17.70;1.00;;;;;;5071987;28;20181;-57
2021/09/01 08:16:22;;;;;;;14.00;11.70;;;17.80;1.00;;;;;;5071600;28;20433;-58
2021/09/01 08:18:47;;;;;;;15.53;13.43;;;17.50;1.00;;;;;;5070014;28;20193;-57
2021/09/01 08:21:13;;;;;;;17.90;11.73;;;17.50;1.00;;;;;;5058205;28;20187;-58
2021/09/01 08:23:39;;;;;;;11.70;10.50;;;17.50;1.00;;;;;;5060211;28;20243;-57
2021/09/01 08:26:05;;;;;;;13.27;10.03;;;17.60;1.00;;;;;;5067774;28;20225;-57
2021/09/01 08:28:30;;;;;;;12.87;9.80;;;17.70;1.00;;;;;;5070929;28;20175;-57
2021/09/01 08:30:56;;;;;;;12.60;10.47;;;17.90;1.00;;;;;;5069001;28;20220;-58
2021/09/01 08:33:21;;;;;;;12.87;10.80;;;18.00;1.00;;;;;;5051475;28;20545;-58
2021/09/01 08:35:47;;;;;;;13.83;10.23;;;18.10;1.00;;;;;;5050670;28;20609;-57
2021/09/01 08:38:12;;;;;;;11.20;9.30;;;18.00;1.00;;;;;;5059021;28;20537;-59
2021/09/01 08:40:39;;;;;;;11.47;9.40;;;18.10;1.00;;;;;;5069993;28;20642;-59
2021/09/01 08:43:07;;;;;;;12.77;10.57;;;18.10;1.00;;;;;;5071281;28;20191;-58
2021/09/01 08:45:33;;;;;;;15.30;10.60;;;18.20;1.00;;;;;;5062282;28;20570;-59
2021/09/01 08:47:59;;;;;;;14.73;11.00;;;18.10;1.00;;;;;;5051105;28;20524;-58
2021/09/01 08:50:27;;;;;;;12.80;10.80;;;18.20;1.00;;;;;;5067823;28;20529;-56
2021/09/01 08:52:53;;;;;;;13.30;11.33;;;18.10;1.00;;;;;;5056602;28;20502;-58
2021/09/01 08:55:19;;;;;;;12.87;11.37;;;18.30;1.00;;;;;;5071212;28;20420;-57
2021/09/01 08:57:45;;;;;;;12.10;10.90;;;18.50;1.00;;;;;;5066983;28;20186;-56
2021/09/01 09:00:11;;;;;;;12.63;10.93;;;18.50;1.00;;;;;;5059470;28;20437;-58
2021/09/01 09:02:37;;;;;;;14.40;12.70;;;18.70;1.00;;;;;;5066092;28;20488;-57
2021/09/01 09:05:11;;;;;;;13.23;11.07;;;18.30;1.00;;;;;;5056597;28;20461;-58
2021/09/01 09:07:55;;;;;;;18.57;14.00;;;18.30;1.00;;;;;;5067643;28;20181;-58
2021/09/01 09:10:35;;;;;;;13.00;11.30;;;18.10;1.00;;;;;;5056075;28;20914;-58
2021/09/01 09:13:03;;;;;;;15.07;13.40;;;18.00;1.00;;;;;;5061197;28;20438;-58
2021/09/01 09:15:29;;;;;;;17.10;13.50;;;17.90;1.00;;;;;;5068204;28;20451;-57
2021/09/01 09:17:55;;;;;;;16.83;13.43;;;18.00;1.00;;;;;;5058330;28;20506;-57
2021/09/01 09:20:30;;;;;;;19.63;14.23;;;17.80;1.00;;;;;;5049380;28;20538;-59
2021/09/01 09:22:56;;;;;;;17.77;13.63;;;17.90;1.00;;;;;;5053631;28;20189;-56
2021/09/01 09:25:28;;;;;;;16.57;14.10;;;18.10;1.00;;;;;;5050867;28;20511;-59
2021/09/01 09:28:02;;;;;;;16.07;13.67;;;18.10;1.00;;;;;;5061426;28;20418;-58
2021/09/01 09:30:40;;;;;;;16.80;11.90;;;18.40;1.00;;;;;;5063288;28;20999;-58
2021/09/01 09:33:22;;;;;;;17.03;13.73;;;18.80;1.00;;;;;;5064083;28;20427;-58
2021/09/01 09:35:59;;;;;;;17.20;13.63;;;19.00;1.00;;;;;;5070418;28;20473;-59
2021/09/01 09:38:35;;;;;;;15.97;13.40;;;19.10;1.00;;;;;;5070489;28;20513;-58
2021/09/01 09:41:03;;;;;;;14.40;12.87;;;19.10;1.00;;;;;;5047378;28;20549;-57
2021/09/01 09:43:30;;;;;;;15.10;13.50;;;19.00;1.00;;;;;;5050481;28;20408;-57
2021/09/01 09:46:14;;;;;;;15.30;12.07;;;19.00;1.00;;;;;;5058747;28;20499;-58
2021/09/01 09:48:41;;;;;;;18.30;12.93;;;19.20;1.00;;;;;;5059586;28;20440;-56
2021/09/01 09:51:18;;;;;;;17.20;13.13;;;19.40;1.00;;;;;;5067102;28;20448;-59
2021/09/01 09:53:51;;;;;;;14.77;13.30;;;19.60;1.00;;;;;;5067082;28;20830;-59
2021/09/01 09:56:19;;;;;;;16.83;12.20;;;19.30;1.00;;;;;;5068641;28;20437;-59
2021/09/01 09:58:48;;;;;;;16.13;12.47;;;19.20;1.00;;;;;;5065308;28;20519;-57
2021/09/01 10:01:16;;;;;;;14.00;12.27;;;19.30;1.00;;;;;;5059913;28;20441;-57
2021/09/01 10:03:42;;;;;;;12.67;11.13;;;19.30;1.00;;;;;;5055485;28;20480;-57
2021/09/01 10:06:10;;;;;;;12.93;10.90;;;19.60;1.00;;;;;;5061197;28;20797;-58
2021/09/01 10:08:37;;;;;;;13.37;10.87;;;19.70;1.00;;;;;;5065201;28;20832;-58
2021/09/01 10:11:11;;;;;;;13.53;12.10;;;19.90;1.00;;;;;;5072003;28;20449;-59
2021/09/01 10:13:41;;;;;;;13.90;11.17;;;19.80;1.00;;;;;;5058404;28;20415;-58
2021/09/01 10:16:10;;;;;;;12.17;10.43;;;19.90;1.00;;;;;;5076388;28;20536;-59
2021/09/01 10:18:38;;;;;;;11.97;10.67;;;20.10;1.00;;;;;;5076906;28;20459;-58
2021/09/01 10:21:05;;;;;;;12.63;10.40;;;20.10;1.00;;;;;;5071938;28;20574;-57
2021/09/01 10:23:41;;;;;;;13.03;10.80;;;20.20;1.00;;;;;;5058819;28;20495;-59
2021/09/01 10:26:24;;;;;;;10.67;9.20;;;20.20;1.00;;;;;;5059005;28;20513;-57
2021/09/01 10:28:50;;;;;;;12.90;10.83;;;20.10;1.00;;;;;;5056019;28;20490;-59
2021/09/01 10:31:15;;;;;;;11.57;9.47;;;20.40;1.00;;;;;;5064855;28;20907;-58
2021/09/01 10:33:47;;;;;;;10.60;9.33;;;20.60;1.00;;;;;;5057513;28;20270;-58
2021/09/01 10:36:25;;;;;;;10.83;9.43;;;20.70;1.00;;;;;;5060703;28;20762;-56
2021/09/01 10:39:08;;;;;;;13.07;10.37;;;20.70;1.00;;;;;;5064867;28;21012;-57
2021/09/01 10:41:35;;;;;;;10.70;9.23;;;21.00;1.00;;;;;;5063740;28;20404;-58
2021/09/01 10:44:13;;;;;;;12.27;9.10;;;21.30;1.00;;;;;;5075075;28;20449;-59
2021/09/01 10:46:51;;;;;;;11.57;10.10;;;21.40;1.00;;;;;;5076730;28;20446;-57
2021/09/01 10:49:46;;;;;;;10.30;9.20;;;21.20;1.00;;;;;;5076490;28;20796;-57
2021/09/01 10:52:12;;;;;;;11.40;8.90;;;20.90;1.00;;;;;;5076250;28;20415;-58
2021/09/01 10:54:40;;;;;;;12.13;9.23;;;20.70;1.00;;;;;;5068056;28;20428;-57
2021/09/01 10:57:24;;;;;;;10.90;9.20;;;20.80;1.00;;;;;;5068088;28;20182;-58
2021/09/01 10:59:51;;;;;;;11.57;10.20;;;20.90;1.00;;;;;;5067898;28;20416;-58
2021/09/01 11:02:19;;;;;;;16.70;10.20;;;20.80;1.00;;;;;;5072103;28;20478;-57
2021/09/01 11:04:53;;;;;;;11.53;10.27;;;20.80;1.00;;;;;;5053693;28;20796;-58
2021/09/01 11:07:30;;;;;;;10.97;9.87;;;20.80;1.00;;;;;;5066471;28;20409;-58
2021/09/01 11:10:06;;;;;;;12.30;8.73;;;21.10;1.00;;;;;;5065815;28;20599;-56
2021/09/01 11:12:41;;;;;;;14.63;10.10;;;21.20;1.00;;;;;;5055781;28;20441;-57
2021/09/01 11:15:07;;;;;;;15.30;10.27;;;21.30;1.00;;;;;;5072894;28;20464;-59
2021/09/01 11:17:32;;;;;;;10.83;9.57;;;21.20;1.00;;;;;;5073182;28;20448;-58
2021/09/01 11:20:00;;;;;;;12.70;10.43;;;21.30;1.00;;;;;;5053598;28;20431;-57
2021/09/01 11:22:29;;;;;;;11.63;10.47;;;21.30;1.00;;;;;;5056172;28;20578;-57
2021/09/01 11:25:00;;;;;;;10.50;9.40;;;21.60;1.00;;;;;;5065409;28;20440;-58
2021/09/01 11:27:27;;;;;;;12.20;10.27;;;21.70;1.00;;;;;;5054978;28;20414;-57
2021/09/01 11:30:19;;;;;;;10.30;8.97;;;21.80;1.00;;;;;;5064438;28;20430;-56
2021/09/01 11:32:51;;;;;;;10.47;9.23;;;22.10;1.00;;;;;;5048624;28;20498;-57
2021/09/01 11:35:20;;;;;;;11.63;9.50;;;22.40;1.00;;;;;;5061103;28;20577;-59
2021/09/01 11:38:06;;;;;;;11.67;10.47;;;22.20;1.00;;;;;;5052746;28;21007;-56
2021/09/01 11:40:31;;;;;;;11.97;10.10;;;22.20;1.00;;;;;;5056416;28;20410;-58
2021/09/01 11:42:57;;;;;;;17.73;11.43;;;22.20;1.00;;;;;;5052522;28;20442;-58
2021/09/01 11:45:23;;;;;;;13.93;10.70;;;22.00;1.00;;;;;;5053874;28;20283;-58
2021/09/01 11:47:51;;;;;;;12.27;10.67;;;21.80;1.00;;;;;;5051967;28;20646;-58
2021/09/01 11:50:18;;;;;;;11.17;9.97;;;21.70;1.00;;;;;;5052454;28;20173;-58
2021/09/01 11:52:50;;;;;;;14.07;11.10;;;22.00;1.00;;;;;;5064946;28;20444;-58
2021/09/01 11:55:25;;;;;;;13.37;10.40;;;22.30;1.00;;;;;;5063067;28;20503;-57
2021/09/01 11:57:52;;;;;;;11.70;10.13;;;21.80;1.00;;;;;;5070844;28;20445;-57
2021/09/01 12:00:17;;;;;;;11.27;9.87;;;21.90;1.00;;;;;;5065975;28;20489;-59
2021/09/01 12:02:43;;;;;;;13.60;10.30;;;22.00;1.00;;;;;;5064591;28;20850;-57
2021/09/01 12:05:09;;;;;;;11.07;9.50;;;22.10;1.00;;;;;;5057161;28;20239;-57
2021/09/01 12:07:37;;;;;;;10.53;8.93;;;22.20;1.00;;;;;;5063755;28;20267;-58
2021/09/01 12:10:09;;;;;;;9.63;8.63;;;22.00;1.00;;;;;;5072037;28;20434;-58
2021/09/01 12:12:39;;;;;;;11.80;10.60;;;22.20;1.00;;;;;;5063333;28;20439;-59
2021/09/01 12:15:15;;;;;;;12.67;10.87;;;22.50;1.00;;;;;;5064316;28;20858;-57
2021/09/01 12:17:44;;;;;;;13.57;10.77;;;22.40;1.00;;;;;;5048483;28;20907;-58
2021/09/01 12:20:14;;;;;;;12.40;10.60;;;22.20;1.00;;;;;;5059053;28;20429;-57
2021/09/01 12:22:42;;;;;;;11.70;9.50;;;21.70;1.00;;;;;;5068123;28;20497;-57
2021/09/01 12:25:16;;;;;;;11.23;10.03;;;21.90;1.00;;;;;;5064817;28;20513;-58
2021/09/01 12:28:04;;;;;;;13.03;10.27;;;21.80;1.00;;;;;;5071531;28;20969;-56
2021/09/01 12:30:32;;;;;;;10.67;9.00;;;21.90;1.00;;;;;;5071557;28;20539;-57
2021/09/01 12:33:02;;;;;;;8.77;7.80;;;22.00;1.00;;;;;;5062514;28;20406;-59
2021/09/01 12:35:31;;;;;;;11.63;9.00;;;22.10;1.00;;;;;;5065774;28;20478;-59
2021/09/01 12:38:00;;;;;;;13.47;10.63;;;22.40;1.00;;;;;;5060290;28;20478;-57
2021/09/01 12:40:31;;;;;;;10.60;9.43;;;22.40;1.00;;;;;;5068545;28;20450;-59
2021/09/01 12:43:09;;;;;;;14.13;11.30;;;22.10;1.00;;;;;;5061594;28;20447;-58
2021/09/01 12:45:39;;;;;;;13.63;10.43;;;22.40;1.00;;;;;;5051463;28;20448;-59
2021/09/01 12:48:08;;;;;;;12.73;10.13;;;22.50;1.00;;;;;;5051113;28;20438;-59
2021/09/01 12:50:43;;;;;;;12.07;9.43;;;22.30;1.00;;;;;;5056424;28;20476;-59